sensor_id;sensor_type;location;lat;lon;timestamp;P1;durP1;ratioP1;P2;durP2;ratioP2
489;SDS011;231;48.120;11.576;2023-06-10T00:01:36;10.10;;;9.60;;
489;SDS011;231;48.120;11.576;2023-06-10T00:04:03;10.87;;;10.27;;
489;SDS011;231;48.120;11.576;2023-06-10T00:06:32;9.83;;;9.33;;
489;SDS011;231;48.120;11.576;2023-06-10T00:09:01;9.07;;;8.57;;
489;SDS011;231;48.120;11.576;2023-06-10T00:11:30;10.53;;;9.97;;
489;SDS011;231;48.120;11.576;2023-06-10T00:13:57;10.93;;;10.33;;
489;SDS011;231;48.120;11.576;2023-06-10T00:16:24;9.67;;;9.17;;
489;SDS011;231;48.120;11.576;2023-06-10T00:18:51;11.30;;;10.70;;
489;SDS011;231;48.120;11.576;2023-06-10T00:21:20;10.13;;;9.63;;
489;SDS011;231;48.120;11.576;2023-06-10T00:23:51;9.70;;;9.20;;
489;SDS011;231;48.120;11.576;2023-06-10T00:26:18;8.80;;;8.30;;
489;SDS011;231;48.120;11.576;2023-06-10T00:28:45;9.70;;;9.20;;
489;SDS011;231;48.120;11.576;2023-06-10T00:31:12;9.40;;;8.90;;
489;SDS011;231;48.120;11.576;2023-06-10T00:33:39;10.43;;;9.90;;
489;SDS011;231;48.120;11.576;2023-06-10T00:36:06;11.10;;;10.50;;
489;SDS011;231;48.120;11.576;2023-06-10T00:38:33;9.90;;;9.40;;
489;SDS011;231;48.120;11.576;2023-06-10T00:41:01;10.37;;;9.80;;
489;SDS011;231;48.120;11.576;2023-06-10T00:43:28;9.80;;;9.30;;
489;SDS011;231;48.120;11.576;2023-06-10T00:45:55;8.33;;;7.90;;
489;SDS011;231;48.120;11.576;2023-06-10T00:48:22;9.00;;;8.50;;
489;SDS011;231;48.120;11.576;2023-06-10T00:50:49;9.40;;;8.90;;
489;SDS011;231;48.120;11.576;2023-06-10T00:53:16;8.80;;;8.30;;
489;SDS011;231;48.120;11.576;2023-06-10T00:55:44;10.53;;;9.97;;
489;SDS011;231;48.120;11.576;2023-06-10T00:58:12;7.93;;;7.53;;
489;SDS011;231;48.120;11.576;2023-06-10T01:00:40;9.03;;;8.47;;
489;SDS011;231;48.120;11.576;2023-06-10T01:03:07;9.00;;;8.50;;
489;SDS011;231;48.120;11.576;2023-06-10T01:05:34;9.37;;;8.87;;
489;SDS011;231;48.120;11.576;2023-06-10T01:08:03;9.00;;;8.50;;
489;SDS011;231;48.120;11.576;2023-06-10T01:10:38;9.47;;;8.97;;
489;SDS011;231;48.120;11.576;2023-06-10T01:13:09;9.97;;;9.47;;
489;SDS011;231;48.120;11.576;2023-06-10T01:15:39;10.63;;;10.03;;
489;SDS011;231;48.120;11.576;2023-06-10T01:18:06;11.17;;;10.57;;
489;SDS011;231;48.120;11.576;2023-06-10T01:20:35;10.87;;;10.27;;
489;SDS011;231;48.120;11.576;2023-06-10T01:23:06;9.50;;;9.00;;
489;SDS011;231;48.120;11.576;2023-06-10T01:25:37;9.43;;;8.93;;
489;SDS011;231;48.120;11.576;2023-06-10T01:28:07;10.80;;;10.20;;
489;SDS011;231;48.120;11.576;2023-06-10T01:30:40;10.00;;;9.50;;
489;SDS011;231;48.120;11.576;2023-06-10T01:33:12;11.17;;;10.57;;
489;SDS011;231;48.120;11.576;2023-06-10T01:35:41;11.20;;;10.60;;
489;SDS011;231;48.120;11.576;2023-06-10T01:38:12;11.77;;;11.17;;
489;SDS011;231;48.120;11.576;2023-06-10T01:40:41;11.20;;;10.60;;
489;SDS011;231;48.120;11.576;2023-06-10T01:43:09;11.70;;;11.10;;
489;SDS011;231;48.120;11.576;2023-06-10T01:45:36;11.23;;;10.63;;
489;SDS011;231;48.120;11.576;2023-06-10T01:48:03;12.27;;;11.67;;
489;SDS011;231;48.120;11.576;2023-06-10T01:50:30;12.33;;;11.70;;
489;SDS011;231;48.120;11.576;2023-06-10T01:52:59;11.80;;;11.20;;
489;SDS011;231;48.120;11.576;2023-06-10T01:55:28;13.80;;;13.10;;
489;SDS011;231;48.120;11.576;2023-06-10T01:57:54;14.13;;;13.43;;
489;SDS011;231;48.120;11.576;2023-06-10T02:00:21;13.70;;;13.00;;
489;SDS011;231;48.120;11.576;2023-06-10T02:02:48;13.63;;;12.93;;
489;SDS011;231;48.120;11.576;2023-06-10T02:05:15;12.80;;;12.10;;
489;SDS011;231;48.120;11.576;2023-06-10T02:07:42;13.57;;;12.87;;
489;SDS011;231;48.120;11.576;2023-06-10T02:10:09;13.37;;;12.67;;
489;SDS011;231;48.120;11.576;2023-06-10T02:12:38;13.00;;;12.30;;
489;SDS011;231;48.120;11.576;2023-06-10T02:15:05;13.50;;;12.80;;
489;SDS011;231;48.120;11.576;2023-06-10T02:17:32;12.83;;;12.17;;
489;SDS011;231;48.120;11.576;2023-06-10T02:19:58;13.17;;;12.47;;
489;SDS011;231;48.120;11.576;2023-06-10T02:22:31;13.43;;;12.73;;
489;SDS011;231;48.120;11.576;2023-06-10T02:24:58;13.47;;;12.77;;
489;SDS011;231;48.120;11.576;2023-06-10T02:27:25;12.13;;;11.53;;
489;SDS011;231;48.120;11.576;2023-06-10T02:29:53;12.63;;;11.97;;
489;SDS011;231;48.120;11.576;2023-06-10T02:32:20;11.87;;;11.27;;
489;SDS011;231;48.120;11.576;2023-06-10T02:34:47;14.77;;;14.00;;
489;SDS011;231;48.120;11.576;2023-06-10T02:37:14;14.87;;;14.07;;
489;SDS011;231;48.120;11.576;2023-06-10T02:39:41;16.87;;;16.00;;
489;SDS011;231;48.120;11.576;2023-06-10T02:42:08;16.67;;;15.83;;
489;SDS011;231;48.120;11.576;2023-06-10T02:44:35;17.00;;;16.10;;
489;SDS011;231;48.120;11.576;2023-06-10T02:47:04;15.17;;;14.37;;
489;SDS011;231;48.120;11.576;2023-06-10T02:49:31;14.30;;;13.60;;
489;SDS011;231;48.120;11.576;2023-06-10T02:51:58;13.77;;;13.07;;
489;SDS011;231;48.120;11.576;2023-06-10T02:54:25;14.50;;;13.80;;
489;SDS011;231;48.120;11.576;2023-06-10T02:56:52;14.63;;;13.90;;
489;SDS011;231;48.120;11.576;2023-06-10T02:59:20;16.27;;;15.47;;
489;SDS011;231;48.120;11.576;2023-06-10T03:01:49;15.83;;;15.03;;
489;SDS011;231;48.120;11.576;2023-06-10T03:04:17;15.20;;;14.40;;
489;SDS011;231;48.120;11.576;2023-06-10T03:06:45;16.33;;;15.53;;
489;SDS011;231;48.120;11.576;2023-06-10T03:09:12;15.53;;;14.73;;
489;SDS011;231;48.120;11.576;2023-06-10T03:11:39;15.40;;;14.60;;
489;SDS011;231;48.120;11.576;2023-06-10T03:14:06;15.57;;;14.77;;
489;SDS011;231;48.120;11.576;2023-06-10T03:16:33;16.57;;;15.77;;
489;SDS011;231;48.120;11.576;2023-06-10T03:19:00;17.07;;;16.17;;
489;SDS011;231;48.120;11.576;2023-06-10T03:21:28;18.40;;;17.50;;
489;SDS011;231;48.120;11.576;2023-06-10T03:23:55;16.43;;;15.63;;
489;SDS011;231;48.120;11.576;2023-06-10T03:26:22;18.50;;;17.60;;
489;SDS011;231;48.120;11.576;2023-06-10T03:28:49;17.63;;;16.73;;
489;SDS011;231;48.120;11.576;2023-06-10T03:31:16;19.43;;;18.43;;
489;SDS011;231;48.120;11.576;2023-06-10T03:33:42;18.70;;;17.80;;
489;SDS011;231;48.120;11.576;2023-06-10T03:36:09;19.50;;;18.50;;
489;SDS011;231;48.120;11.576;2023-06-10T03:38:38;18.10;;;17.20;;
489;SDS011;231;48.120;11.576;2023-06-10T03:41:05;17.30;;;16.40;;
489;SDS011;231;48.120;11.576;2023-06-10T03:43:32;17.27;;;16.37;;
489;SDS011;231;48.120;11.576;2023-06-10T03:45:58;17.87;;;16.97;;
489;SDS011;231;48.120;11.576;2023-06-10T03:48:25;18.23;;;17.33;;
489;SDS011;231;48.120;11.576;2023-06-10T03:50:52;18.33;;;17.43;;
489;SDS011;231;48.120;11.576;2023-06-10T03:53:19;17.90;;;17.00;;
489;SDS011;231;48.120;11.576;2023-06-10T03:55:48;17.17;;;16.27;;
489;SDS011;231;48.120;11.576;2023-06-10T03:58:15;16.20;;;15.40;;
489;SDS011;231;48.120;11.576;2023-06-10T04:00:43;16.57;;;15.77;;
489;SDS011;231;48.120;11.576;2023-06-10T04:03:10;17.37;;;16.47;;
489;SDS011;231;48.120;11.576;2023-06-10T04:05:39;17.47;;;16.57;;
489;SDS011;231;48.120;11.576;2023-06-10T04:08:07;15.93;;;15.13;;
489;SDS011;231;48.120;11.576;2023-06-10T04:10:35;16.60;;;15.80;;
489;SDS011;231;48.120;11.576;2023-06-10T04:13:03;16.47;;;15.67;;
489;SDS011;231;48.120;11.576;2023-06-10T04:15:30;17.23;;;16.33;;
489;SDS011;231;48.120;11.576;2023-06-10T04:17:58;16.27;;;15.47;;
489;SDS011;231;48.120;11.576;2023-06-10T04:20:26;15.70;;;14.90;;
489;SDS011;231;48.120;11.576;2023-06-10T04:22:53;16.00;;;15.20;;
489;SDS011;231;48.120;11.576;2023-06-10T04:25:20;17.10;;;16.20;;
489;SDS011;231;48.120;11.576;2023-06-10T04:27:47;15.63;;;14.83;;
489;SDS011;231;48.120;11.576;2023-06-10T04:30:17;15.30;;;14.50;;
489;SDS011;231;48.120;11.576;2023-06-10T04:32:43;15.73;;;14.93;;
489;SDS011;231;48.120;11.576;2023-06-10T04:35:12;15.87;;;15.07;;
489;SDS011;231;48.120;11.576;2023-06-10T04:37:39;16.27;;;15.47;;
489;SDS011;231;48.120;11.576;2023-06-10T04:40:07;16.03;;;15.23;;
489;SDS011;231;48.120;11.576;2023-06-10T04:42:35;15.47;;;14.67;;
489;SDS011;231;48.120;11.576;2023-06-10T04:45:03;17.53;;;16.63;;
489;SDS011;231;48.120;11.576;2023-06-10T04:47:32;15.70;;;14.90;;
489;SDS011;231;48.120;11.576;2023-06-10T04:49:59;15.63;;;14.83;;
489;SDS011;231;48.120;11.576;2023-06-10T04:52:26;14.57;;;13.87;;
489;SDS011;231;48.120;11.576;2023-06-10T04:54:53;14.93;;;14.13;;
489;SDS011;231;48.120;11.576;2023-06-10T04:57:20;14.23;;;13.53;;
489;SDS011;231;48.120;11.576;2023-06-10T04:59:47;14.77;;;14.00;;
489;SDS011;231;48.120;11.576;2023-06-10T05:02:14;14.30;;;13.60;;
489;SDS011;231;48.120;11.576;2023-06-10T05:04:42;13.80;;;13.10;;
489;SDS011;231;48.120;11.576;2023-06-10T05:07:09;14.53;;;13.83;;
489;SDS011;231;48.120;11.576;2023-06-10T05:09:36;14.40;;;13.70;;
489;SDS011;231;48.120;11.576;2023-06-10T05:12:03;15.10;;;14.30;;
489;SDS011;231;48.120;11.576;2023-06-10T05:14:31;14.20;;;13.50;;
489;SDS011;231;48.120;11.576;2023-06-10T05:16:58;17.50;;;15.30;;
489;SDS011;231;48.120;11.576;2023-06-10T05:19:25;11.70;;;11.10;;
489;SDS011;231;48.120;11.576;2023-06-10T05:21:54;13.70;;;13.00;;
489;SDS011;231;48.120;11.576;2023-06-10T05:24:20;13.13;;;12.43;;
489;SDS011;231;48.120;11.576;2023-06-10T05:26:48;11.87;;;11.27;;
489;SDS011;231;48.120;11.576;2023-06-10T05:29:15;10.97;;;10.37;;
489;SDS011;231;48.120;11.576;2023-06-10T05:31:42;12.10;;;11.50;;
489;SDS011;231;48.120;11.576;2023-06-10T05:34:09;11.57;;;10.97;;
489;SDS011;231;48.120;11.576;2023-06-10T05:36:36;10.90;;;10.30;;
489;SDS011;231;48.120;11.576;2023-06-10T05:39:04;12.00;;;11.40;;
489;SDS011;231;48.120;11.576;2023-06-10T05:41:31;10.03;;;9.57;;
489;SDS011;231;48.120;11.576;2023-06-10T05:43:58;10.90;;;10.30;;
489;SDS011;231;48.120;11.576;2023-06-10T05:46:24;10.90;;;10.30;;
489;SDS011;231;48.120;11.576;2023-06-10T05:48:51;11.93;;;11.33;;
489;SDS011;231;48.120;11.576;2023-06-10T05:51:18;12.63;;;11.97;;
489;SDS011;231;48.120;11.576;2023-06-10T05:53:45;10.00;;;9.50;;
489;SDS011;231;48.120;11.576;2023-06-10T05:56:14;10.77;;;10.17;;
489;SDS011;231;48.120;11.576;2023-06-10T05:58:40;10.47;;;9.93;;
489;SDS011;231;48.120;11.576;2023-06-10T06:01:07;10.80;;;10.20;;
489;SDS011;231;48.120;11.576;2023-06-10T06:03:34;11.90;;;11.20;;
489;SDS011;231;48.120;11.576;2023-06-10T06:06:02;11.07;;;10.47;;
489;SDS011;231;48.120;11.576;2023-06-10T06:08:29;10.03;;;9.53;;
489;SDS011;231;48.120;11.576;2023-06-10T06:10:56;10.00;;;9.50;;
489;SDS011;231;48.120;11.576;2023-06-10T06:13:24;10.43;;;9.90;;
489;SDS011;231;48.120;11.576;2023-06-10T06:15:51;11.77;;;11.17;;
489;SDS011;231;48.120;11.576;2023-06-10T06:18:18;11.07;;;10.47;;
489;SDS011;231;48.120;11.576;2023-06-10T06:20:44;9.27;;;8.77;;
489;SDS011;231;48.120;11.576;2023-06-10T06:23:11;11.37;;;10.77;;
489;SDS011;231;48.120;11.576;2023-06-10T06:25:38;10.00;;;9.50;;
489;SDS011;231;48.120;11.576;2023-06-10T06:28:05;11.10;;;10.50;;
489;SDS011;231;48.120;11.576;2023-06-10T06:30:34;10.13;;;9.63;;
489;SDS011;231;48.120;11.576;2023-06-10T06:33:01;9.40;;;8.90;;
489;SDS011;231;48.120;11.576;2023-06-10T06:35:30;9.63;;;9.13;;
489;SDS011;231;48.120;11.576;2023-06-10T06:37:57;10.20;;;9.70;;
489;SDS011;231;48.120;11.576;2023-06-10T06:40:25;10.20;;;9.70;;
489;SDS011;231;48.120;11.576;2023-06-10T06:42:51;9.87;;;9.37;;
489;SDS011;231;48.120;11.576;2023-06-10T06:45:18;10.77;;;10.17;;
489;SDS011;231;48.120;11.576;2023-06-10T06:47:47;10.40;;;9.43;;
489;SDS011;231;48.120;11.576;2023-06-10T06:50:14;10.00;;;9.50;;
489;SDS011;231;48.120;11.576;2023-06-10T06:52:41;11.33;;;10.73;;
489;SDS011;231;48.120;11.576;2023-06-10T06:55:08;9.30;;;8.80;;
489;SDS011;231;48.120;11.576;2023-06-10T06:57:35;9.13;;;8.63;;
489;SDS011;231;48.120;11.576;2023-06-10T07:00:02;9.57;;;9.07;;
489;SDS011;231;48.120;11.576;2023-06-10T07:02:30;10.03;;;9.53;;
489;SDS011;231;48.120;11.576;2023-06-10T07:04:59;9.90;;;9.40;;
489;SDS011;231;48.120;11.576;2023-06-10T07:07:26;9.87;;;9.37;;
489;SDS011;231;48.120;11.576;2023-06-10T07:09:53;9.70;;;9.20;;
489;SDS011;231;48.120;11.576;2023-06-10T07:12:20;8.90;;;8.40;;
489;SDS011;231;48.120;11.576;2023-06-10T07:14:49;9.50;;;9.00;;
489;SDS011;231;48.120;11.576;2023-06-10T07:17:16;8.70;;;8.20;;
489;SDS011;231;48.120;11.576;2023-06-10T07:19:43;9.53;;;9.03;;
489;SDS011;231;48.120;11.576;2023-06-10T07:22:11;9.47;;;8.97;;
489;SDS011;231;48.120;11.576;2023-06-10T07:24:38;9.40;;;8.90;;
489;SDS011;231;48.120;11.576;2023-06-10T07:27:05;8.33;;;7.90;;
489;SDS011;231;48.120;11.576;2023-06-10T07:29:32;8.57;;;8.07;;
489;SDS011;231;48.120;11.576;2023-06-10T07:32:00;8.37;;;7.93;;
489;SDS011;231;48.120;11.576;2023-06-10T07:34:27;10.03;;;9.53;;
489;SDS011;231;48.120;11.576;2023-06-10T07:36:54;8.50;;;8.03;;
489;SDS011;231;48.120;11.576;2023-06-10T07:39:22;8.63;;;8.13;;
489;SDS011;231;48.120;11.576;2023-06-10T07:41:49;8.97;;;8.47;;
489;SDS011;231;48.120;11.576;2023-06-10T07:44:18;7.30;;;6.90;;
489;SDS011;231;48.120;11.576;2023-06-10T07:46:45;7.53;;;7.13;;
489;SDS011;231;48.120;11.576;2023-06-10T07:49:12;7.27;;;6.87;;
489;SDS011;231;48.120;11.576;2023-06-10T07:51:39;7.03;;;6.63;;
489;SDS011;231;48.120;11.576;2023-06-10T07:54:06;8.00;;;7.60;;
489;SDS011;231;48.120;11.576;2023-06-10T07:56:34;6.80;;;6.40;;
489;SDS011;231;48.120;11.576;2023-06-10T07:59:01;8.20;;;7.80;;
489;SDS011;231;48.120;11.576;2023-06-10T08:01:28;6.70;;;6.30;;
489;SDS011;231;48.120;11.576;2023-06-10T08:03:56;6.60;;;6.20;;
489;SDS011;231;48.120;11.576;2023-06-10T08:06:23;6.57;;;6.17;;
489;SDS011;231;48.120;11.576;2023-06-10T08:08:50;7.17;;;6.77;;
489;SDS011;231;48.120;11.576;2023-06-10T08:11:16;7.60;;;7.20;;
489;SDS011;231;48.120;11.576;2023-06-10T08:13:45;6.97;;;6.57;;
489;SDS011;231;48.120;11.576;2023-06-10T08:16:11;7.20;;;6.80;;
489;SDS011;231;48.120;11.576;2023-06-10T08:18:38;7.53;;;7.13;;
489;SDS011;231;48.120;11.576;2023-06-10T08:21:05;6.53;;;6.13;;
489;SDS011;231;48.120;11.576;2023-06-10T08:23:32;6.53;;;6.13;;
489;SDS011;231;48.120;11.576;2023-06-10T08:25:59;5.77;;;5.47;;
489;SDS011;231;48.120;11.576;2023-06-10T08:28:27;5.97;;;5.67;;
489;SDS011;231;48.120;11.576;2023-06-10T08:30:55;7.40;;;7.00;;
489;SDS011;231;48.120;11.576;2023-06-10T08:33:22;8.07;;;6.80;;
489;SDS011;231;48.120;11.576;2023-06-10T08:35:49;7.30;;;6.90;;
489;SDS011;231;48.120;11.576;2023-06-10T08:38:15;6.60;;;6.20;;
489;SDS011;231;48.120;11.576;2023-06-10T08:40:42;7.00;;;6.60;;
489;SDS011;231;48.120;11.576;2023-06-10T08:43:10;7.73;;;7.33;;
489;SDS011;231;48.120;11.576;2023-06-10T08:45:45;6.93;;;6.53;;
489;SDS011;231;48.120;11.576;2023-06-10T08:48:16;6.80;;;6.40;;
489;SDS011;231;48.120;11.576;2023-06-10T08:50:45;7.07;;;6.67;;
489;SDS011;231;48.120;11.576;2023-06-10T08:53:13;7.07;;;6.67;;
489;SDS011;231;48.120;11.576;2023-06-10T08:55:46;6.50;;;6.10;;
489;SDS011;231;48.120;11.576;2023-06-10T08:58:17;6.37;;;6.00;;
489;SDS011;231;48.120;11.576;2023-06-10T09:00:44;6.43;;;6.03;;
489;SDS011;231;48.120;11.576;2023-06-10T09:03:12;7.43;;;7.03;;
489;SDS011;231;48.120;11.576;2023-06-10T09:05:40;6.70;;;6.30;;
489;SDS011;231;48.120;11.576;2023-06-10T09:08:08;7.03;;;6.63;;
489;SDS011;231;48.120;11.576;2023-06-10T09:10:35;8.83;;;7.87;;
489;SDS011;231;48.120;11.576;2023-06-10T09:13:02;6.00;;;5.70;;
489;SDS011;231;48.120;11.576;2023-06-10T09:15:29;10.00;;;7.40;;
489;SDS011;231;48.120;11.576;2023-06-10T09:17:56;5.87;;;5.57;;
489;SDS011;231;48.120;11.576;2023-06-10T09:20:24;6.80;;;6.40;;
489;SDS011;231;48.120;11.576;2023-06-10T09:22:53;6.80;;;6.40;;
489;SDS011;231;48.120;11.576;2023-06-10T09:25:20;6.10;;;5.80;;
489;SDS011;231;48.120;11.576;2023-06-10T09:28:01;6.53;;;6.13;;
489;SDS011;231;48.120;11.576;2023-06-10T09:30:29;6.13;;;5.80;;
489;SDS011;231;48.120;11.576;2023-06-10T09:32:57;7.07;;;6.67;;
489;SDS011;231;48.120;11.576;2023-06-10T09:35:27;6.37;;;6.00;;
489;SDS011;231;48.120;11.576;2023-06-10T09:37:56;5.37;;;5.07;;
489;SDS011;231;48.120;11.576;2023-06-10T09:40:25;5.73;;;5.43;;
489;SDS011;231;48.120;11.576;2023-06-10T09:42:53;7.00;;;6.60;;
489;SDS011;231;48.120;11.576;2023-06-10T09:45:21;7.43;;;5.20;;
489;SDS011;231;48.120;11.576;2023-06-10T09:47:53;6.00;;;5.70;;
489;SDS011;231;48.120;11.576;2023-06-10T09:50:23;6.57;;;6.17;;
489;SDS011;231;48.120;11.576;2023-06-10T09:52:50;6.37;;;6.00;;
489;SDS011;231;48.120;11.576;2023-06-10T09:55:19;5.10;;;4.80;;
489;SDS011;231;48.120;11.576;2023-06-10T09:57:48;5.30;;;5.00;;
489;SDS011;231;48.120;11.576;2023-06-10T10:00:15;6.20;;;5.90;;
489;SDS011;231;48.120;11.576;2023-06-10T10:02:44;5.80;;;5.50;;
489;SDS011;231;48.120;11.576;2023-06-10T10:05:12;6.07;;;5.77;;
489;SDS011;231;48.120;11.576;2023-06-10T10:07:41;5.63;;;5.00;;
489;SDS011;231;48.120;11.576;2023-06-10T10:10:08;6.33;;;5.97;;
489;SDS011;231;48.120;11.576;2023-06-10T10:12:37;5.80;;;5.50;;
489;SDS011;231;48.120;11.576;2023-06-10T10:15:05;6.60;;;6.20;;
489;SDS011;231;48.120;11.576;2023-06-10T10:17:34;4.97;;;4.67;;
489;SDS011;231;48.120;11.576;2023-06-10T10:20:02;5.67;;;5.37;;
489;SDS011;231;48.120;11.576;2023-06-10T10:22:31;4.60;;;4.30;;
489;SDS011;231;48.120;11.576;2023-06-10T10:25:05;5.50;;;5.20;;
489;SDS011;231;48.120;11.576;2023-06-10T10:27:42;5.57;;;5.27;;
489;SDS011;231;48.120;11.576;2023-06-10T10:30:14;5.43;;;5.13;;
489;SDS011;231;48.120;11.576;2023-06-10T10:32:43;5.30;;;5.00;;
489;SDS011;231;48.120;11.576;2023-06-10T10:35:19;5.40;;;5.10;;
489;SDS011;231;48.120;11.576;2023-06-10T10:37:48;4.77;;;4.47;;
489;SDS011;231;48.120;11.576;2023-06-10T10:40:28;5.00;;;4.70;;
489;SDS011;231;48.120;11.576;2023-06-10T10:43:01;5.00;;;4.70;;
489;SDS011;231;48.120;11.576;2023-06-10T10:45:29;5.13;;;4.83;;
489;SDS011;231;48.120;11.576;2023-06-10T10:47:56;5.10;;;4.80;;
489;SDS011;231;48.120;11.576;2023-06-10T10:50:23;5.20;;;4.90;;
489;SDS011;231;48.120;11.576;2023-06-10T10:53:00;5.60;;;5.30;;
489;SDS011;231;48.120;11.576;2023-06-10T10:55:27;5.60;;;5.20;;
489;SDS011;231;48.120;11.576;2023-06-10T10:57:55;5.27;;;4.97;;
489;SDS011;231;48.120;11.576;2023-06-10T11:00:31;5.70;;;5.40;;
489;SDS011;231;48.120;11.576;2023-06-10T11:02:59;5.30;;;5.00;;
489;SDS011;231;48.120;11.576;2023-06-10T11:05:31;5.27;;;4.97;;
489;SDS011;231;48.120;11.576;2023-06-10T11:08:01;5.23;;;4.93;;
489;SDS011;231;48.120;11.576;2023-06-10T11:10:29;6.83;;;4.70;;
489;SDS011;231;48.120;11.576;2023-06-10T11:12:57;4.40;;;4.10;;
489;SDS011;231;48.120;11.576;2023-06-10T11:15:24;4.53;;;4.23;;
489;SDS011;231;48.120;11.576;2023-06-10T11:18:13;5.50;;;5.20;;
489;SDS011;231;48.120;11.576;2023-06-10T11:20:44;4.40;;;4.10;;
489;SDS011;231;48.120;11.576;2023-06-10T11:23:24;4.60;;;4.30;;
489;SDS011;231;48.120;11.576;2023-06-10T11:26:10;4.60;;;4.30;;
489;SDS011;231;48.120;11.576;2023-06-10T11:28:42;5.20;;;4.90;;
489;SDS011;231;48.120;11.576;2023-06-10T11:31:28;4.37;;;4.07;;
489;SDS011;231;48.120;11.576;2023-06-10T11:33:57;5.00;;;4.70;;
489;SDS011;231;48.120;11.576;2023-06-10T11:36:25;4.80;;;4.50;;
489;SDS011;231;48.120;11.576;2023-06-10T11:38:55;4.53;;;4.23;;
489;SDS011;231;48.120;11.576;2023-06-10T11:41:27;4.90;;;4.60;;
489;SDS011;231;48.120;11.576;2023-06-10T11:43:56;4.70;;;4.40;;
489;SDS011;231;48.120;11.576;2023-06-10T11:46:27;3.50;;;3.30;;
489;SDS011;231;48.120;11.576;2023-06-10T11:49:09;4.83;;;4.53;;
489;SDS011;231;48.120;11.576;2023-06-10T11:51:36;4.07;;;3.87;;
489;SDS011;231;48.120;11.576;2023-06-10T11:54:05;3.83;;;3.63;;
489;SDS011;231;48.120;11.576;2023-06-10T11:56:34;4.27;;;4.00;;
489;SDS011;231;48.120;11.576;2023-06-10T11:59:02;3.47;;;3.30;;
489;SDS011;231;48.120;11.576;2023-06-10T12:01:32;4.23;;;3.97;;
489;SDS011;231;48.120;11.576;2023-06-10T12:04:00;4.30;;;4.00;;
489;SDS011;231;48.120;11.576;2023-06-10T12:06:38;3.80;;;3.60;;
489;SDS011;231;48.120;11.576;2023-06-10T12:09:17;4.63;;;4.33;;
489;SDS011;231;48.120;11.576;2023-06-10T12:11:45;3.20;;;3.00;;
489;SDS011;231;48.120;11.576;2023-06-10T12:14:15;4.37;;;4.07;;
489;SDS011;231;48.120;11.576;2023-06-10T12:17:02;3.73;;;3.53;;
489;SDS011;231;48.120;11.576;2023-06-10T12:19:30;4.63;;;4.33;;
489;SDS011;231;48.120;11.576;2023-06-10T12:21:58;3.90;;;3.70;;
489;SDS011;231;48.120;11.576;2023-06-10T12:24:27;4.30;;;4.00;;
489;SDS011;231;48.120;11.576;2023-06-10T12:26:54;4.53;;;4.23;;
489;SDS011;231;48.120;11.576;2023-06-10T12:29:22;3.73;;;3.53;;
489;SDS011;231;48.120;11.576;2023-06-10T12:32:00;3.53;;;3.33;;
489;SDS011;231;48.120;11.576;2023-06-10T12:34:30;3.10;;;2.90;;
489;SDS011;231;48.120;11.576;2023-06-10T12:36:59;3.03;;;2.83;;
489;SDS011;231;48.120;11.576;2023-06-10T12:39:27;3.30;;;3.10;;
489;SDS011;231;48.120;11.576;2023-06-10T12:41:54;3.70;;;3.50;;
489;SDS011;231;48.120;11.576;2023-06-10T12:44:33;4.03;;;3.30;;
489;SDS011;231;48.120;11.576;2023-06-10T12:47:06;6.90;;;3.73;;
489;SDS011;231;48.120;11.576;2023-06-10T12:49:34;3.83;;;3.63;;
489;SDS011;231;48.120;11.576;2023-06-10T12:52:03;3.13;;;2.90;;
489;SDS011;231;48.120;11.576;2023-06-10T12:54:30;4.97;;;3.80;;
489;SDS011;231;48.120;11.576;2023-06-10T12:56:57;3.53;;;3.33;;
489;SDS011;231;48.120;11.576;2023-06-10T12:59:27;3.57;;;3.30;;
489;SDS011;231;48.120;11.576;2023-06-10T13:02:01;3.70;;;3.50;;
489;SDS011;231;48.120;11.576;2023-06-10T13:04:28;4.10;;;3.87;;
489;SDS011;231;48.120;11.576;2023-06-10T13:06:55;5.43;;;5.13;;
489;SDS011;231;48.120;11.576;2023-06-10T13:09:23;5.60;;;5.30;;
489;SDS011;231;48.120;11.576;2023-06-10T13:11:50;5.63;;;5.33;;
489;SDS011;231;48.120;11.576;2023-06-10T13:14:17;6.50;;;6.10;;
489;SDS011;231;48.120;11.576;2023-06-10T13:16:45;6.40;;;6.03;;
489;SDS011;231;48.120;11.576;2023-06-10T13:19:11;6.57;;;6.17;;
489;SDS011;231;48.120;11.576;2023-06-10T13:21:38;7.10;;;6.70;;
489;SDS011;231;48.120;11.576;2023-06-10T13:24:06;6.20;;;5.90;;
489;SDS011;231;48.120;11.576;2023-06-10T13:26:34;5.57;;;5.27;;
489;SDS011;231;48.120;11.576;2023-06-10T13:29:01;6.43;;;6.07;;
489;SDS011;231;48.120;11.576;2023-06-10T13:31:28;6.90;;;6.50;;
489;SDS011;231;48.120;11.576;2023-06-10T13:33:54;5.30;;;5.00;;
489;SDS011;231;48.120;11.576;2023-06-10T13:36:21;6.00;;;5.70;;
489;SDS011;231;48.120;11.576;2023-06-10T13:38:48;6.70;;;6.30;;
489;SDS011;231;48.120;11.576;2023-06-10T13:41:15;6.40;;;6.00;;
489;SDS011;231;48.120;11.576;2023-06-10T13:43:43;6.43;;;6.00;;
489;SDS011;231;48.120;11.576;2023-06-10T13:46:10;5.10;;;4.80;;
489;SDS011;231;48.120;11.576;2023-06-10T13:48:37;5.63;;;5.30;;
489;SDS011;231;48.120;11.576;2023-06-10T13:51:06;5.23;;;4.93;;
489;SDS011;231;48.120;11.576;2023-06-10T13:53:34;4.37;;;4.07;;
489;SDS011;231;48.120;11.576;2023-06-10T13:56:01;4.97;;;4.67;;
489;SDS011;231;48.120;11.576;2023-06-10T13:58:27;4.30;;;4.03;;
489;SDS011;231;48.120;11.576;2023-06-10T14:00:56;4.63;;;4.33;;
489;SDS011;231;48.120;11.576;2023-06-10T14:03:23;5.27;;;4.97;;
489;SDS011;231;48.120;11.576;2023-06-10T14:05:50;5.47;;;5.17;;
489;SDS011;231;48.120;11.576;2023-06-10T14:08:17;3.90;;;3.70;;
489;SDS011;231;48.120;11.576;2023-06-10T14:10:45;5.10;;;4.80;;
489;SDS011;231;48.120;11.576;2023-06-10T14:13:12;4.07;;;3.87;;
489;SDS011;231;48.120;11.576;2023-06-10T14:15:39;4.37;;;4.07;;
489;SDS011;231;48.120;11.576;2023-06-10T14:18:07;3.90;;;3.70;;
489;SDS011;231;48.120;11.576;2023-06-10T14:20:33;4.97;;;4.67;;
489;SDS011;231;48.120;11.576;2023-06-10T14:23:01;4.80;;;4.50;;
489;SDS011;231;48.120;11.576;2023-06-10T14:25:28;4.50;;;4.20;;
489;SDS011;231;48.120;11.576;2023-06-10T14:27:55;3.93;;;3.73;;
489;SDS011;231;48.120;11.576;2023-06-10T14:30:22;4.47;;;4.17;;
489;SDS011;231;48.120;11.576;2023-06-10T14:32:49;4.60;;;4.30;;
489;SDS011;231;48.120;11.576;2023-06-10T14:35:17;4.87;;;4.57;;
489;SDS011;231;48.120;11.576;2023-06-10T14:37:45;4.90;;;4.60;;
489;SDS011;231;48.120;11.576;2023-06-10T14:40:12;4.80;;;4.50;;
489;SDS011;231;48.120;11.576;2023-06-10T14:42:39;5.37;;;5.07;;
489;SDS011;231;48.120;11.576;2023-06-10T14:45:06;5.73;;;5.00;;
489;SDS011;231;48.120;11.576;2023-06-10T14:47:35;4.23;;;3.97;;
489;SDS011;231;48.120;11.576;2023-06-10T14:50:02;4.90;;;4.60;;
489;SDS011;231;48.120;11.576;2023-06-10T14:52:33;3.90;;;3.70;;
489;SDS011;231;48.120;11.576;2023-06-10T14:55:06;4.00;;;3.80;;
489;SDS011;231;48.120;11.576;2023-06-10T14:57:33;3.57;;;3.37;;
489;SDS011;231;48.120;11.576;2023-06-10T15:00:00;4.83;;;4.53;;
489;SDS011;231;48.120;11.576;2023-06-10T15:02:27;4.40;;;4.10;;
489;SDS011;231;48.120;11.576;2023-06-10T15:04:53;5.27;;;4.97;;
489;SDS011;231;48.120;11.576;2023-06-10T15:07:20;4.57;;;4.27;;
489;SDS011;231;48.120;11.576;2023-06-10T15:09:49;5.27;;;4.97;;
489;SDS011;231;48.120;11.576;2023-06-10T15:12:15;4.83;;;4.53;;
489;SDS011;231;48.120;11.576;2023-06-10T15:14:42;5.20;;;4.90;;
489;SDS011;231;48.120;11.576;2023-06-10T15:17:09;6.10;;;5.80;;
489;SDS011;231;48.120;11.576;2023-06-10T15:19:36;5.80;;;5.50;;
489;SDS011;231;48.120;11.576;2023-06-10T15:22:03;6.00;;;5.70;;
489;SDS011;231;48.120;11.576;2023-06-10T15:24:30;5.40;;;5.10;;
489;SDS011;231;48.120;11.576;2023-06-10T15:26:58;5.70;;;5.40;;